createdAt,value
2018-02-10T00:01:02.413Z,73.77
2018-02-10T00:03:29.983Z,73.97
2018-02-10T00:05:57.923Z,92.00
2018-02-10T00:08:25.503Z,81.60
2018-02-10T00:10:54.582Z,75.00
2018-02-10T00:13:22.174Z,81.03
2018-02-10T00:15:50.508Z,79.53
2018-02-10T00:18:18.942Z,86.57
2018-02-10T00:20:47.604Z,83.53
2018-02-10T00:23:15.320Z,76.90
2018-02-10T00:25:42.954Z,86.07
2018-02-10T00:28:10.563Z,77.67
2018-02-10T00:30:38.135Z,79.63
2018-02-10T00:33:06.002Z,90.23
2018-02-10T00:35:34.364Z,91.37
2018-02-10T00:38:01.932Z,96.33
2018-02-10T00:40:30.299Z,84.50
2018-02-10T00:42:57.869Z,85.30
2018-02-10T00:45:25.457Z,98.17
2018-02-10T00:47:53.889Z,83.87
2018-02-10T00:50:22.183Z,85.23
2018-02-10T00:52:49.752Z,74.07
2018-02-10T00:55:17.406Z,76.00
2018-02-10T00:57:46.900Z,70.00
2018-02-10T01:00:14.460Z,76.77
2018-02-10T01:02:42.029Z,83.13
2018-02-10T01:05:09.987Z,81.87
2018-02-10T01:07:37.903Z,83.67
2018-02-10T01:10:05.492Z,80.90
2018-02-10T01:12:33.111Z,71.63
2018-02-10T01:15:01.474Z,79.10
2018-02-10T01:17:29.820Z,75.23
2018-02-10T01:19:57.793Z,83.63
2018-02-10T01:22:25.394Z,77.57
2018-02-10T01:24:52.996Z,88.37
2018-02-10T01:27:20.593Z,78.63
2018-02-10T01:29:48.145Z,82.00
2018-02-10T01:32:15.731Z,81.17
2018-02-10T01:34:44.183Z,86.33
2018-02-10T01:37:11.771Z,85.10
2018-02-10T01:39:40.135Z,83.80
2018-02-10T01:42:08.814Z,78.03
2018-02-10T01:44:37.148Z,85.70
2018-02-10T01:47:04.997Z,78.93
2018-02-10T01:49:32.567Z,86.17
2018-02-10T01:52:00.123Z,84.53
2018-02-10T01:54:27.981Z,87.03
2018-02-10T01:56:55.554Z,87.13
2018-02-10T01:59:23.108Z,82.63
2018-02-10T02:01:50.994Z,90.63
2018-02-10T02:04:18.626Z,81.80
2018-02-10T02:06:46.960Z,97.83
2018-02-10T02:09:15.442Z,93.07
2018-02-10T02:11:43.757Z,97.40
2018-02-10T02:14:11.610Z,98.00
2018-02-10T02:16:39.168Z,94.93
2018-02-10T02:19:06.739Z,87.30
2018-02-10T02:21:34.340Z,81.53
2018-02-10T02:24:01.896Z,82.63
2018-02-10T02:26:29.475Z,78.17
2018-02-10T02:28:58.134Z,85.87
2018-02-10T02:31:25.699Z,85.77
2018-02-10T02:33:53.315Z,87.87
2018-02-10T02:36:21.205Z,81.03
2018-02-10T02:38:48.800Z,87.97
2018-02-10T02:41:16.379Z,87.93
2018-02-10T02:43:43.985Z,85.33
2018-02-10T02:46:11.566Z,95.13
2018-02-10T02:48:39.135Z,84.40
2018-02-10T02:51:07.216Z,91.30
2018-02-10T02:53:35.558Z,94.80
2018-02-10T02:56:03.144Z,91.90
2018-02-10T02:58:31.085Z,104.73
2018-02-10T03:00:58.656Z,97.10
2018-02-10T03:03:26.225Z,78.57
2018-02-10T03:05:54.000Z,89.33
2018-02-10T03:08:22.350Z,93.27
2018-02-10T03:10:49.921Z,90.07
2018-02-10T03:13:17.516Z,88.10
2018-02-10T03:15:45.080Z,87.43
2018-02-10T03:18:12.655Z,81.63
2018-02-10T03:20:40.538Z,84.97
2018-02-10T03:23:08.176Z,90.27
2018-02-10T03:25:35.742Z,89.37
2018-02-10T03:28:03.589Z,92.77
2018-02-10T03:30:31.160Z,90.93
2018-02-10T03:32:58.727Z,82.13
2018-02-10T03:35:26.562Z,83.33
2018-02-10T03:37:54.132Z,91.60
2018-02-10T03:40:21.698Z,86.57
2018-02-10T03:42:49.296Z,79.63
2018-02-10T03:45:16.857Z,85.83
2018-02-10T03:47:45.963Z,102.57
2018-02-10T03:50:13.608Z,84.13
2018-02-10T03:52:41.156Z,87.47
2018-02-10T03:55:09.546Z,90.67
2018-02-10T03:57:37.500Z,84.90
2018-02-10T04:00:05.060Z,103.43
2018-02-10T04:02:33.527Z,83.87
2018-02-10T04:05:01.424Z,91.50
2018-02-10T04:07:29.018Z,83.20
2018-02-10T04:09:57.340Z,90.13
2018-02-10T04:12:24.942Z,89.37
2018-02-10T04:14:53.275Z,96.13
2018-02-10T04:17:20.886Z,88.63
2018-02-10T04:19:49.514Z,90.93
2018-02-10T04:22:17.081Z,90.70
2018-02-10T04:24:44.645Z,91.97
2018-02-10T04:27:12.500Z,109.37
2018-02-10T04:29:40.054Z,92.67
2018-02-10T04:32:07.629Z,76.47
2018-02-10T04:34:35.474Z,93.80
2018-02-10T04:37:03.251Z,92.10
2018-02-10T04:39:30.810Z,85.80
2018-02-10T04:41:59.082Z,93.37
2018-02-10T04:44:26.651Z,80.33
2018-02-10T04:46:54.219Z,78.87
2018-02-10T04:49:21.937Z,74.37
2018-02-10T04:51:49.540Z,83.53
2018-02-10T04:54:17.097Z,79.70
2018-02-10T04:56:45.763Z,75.87
2018-02-10T04:59:13.325Z,85.60
2018-02-10T05:01:40.878Z,79.10
2018-02-10T05:04:09.073Z,83.00
2018-02-10T05:06:37.424Z,84.03
2018-02-10T05:09:04.982Z,83.67
2018-02-10T05:11:32.847Z,88.00
2018-02-10T05:14:00.417Z,82.50
2018-02-10T05:16:27.988Z,87.27
2018-02-10T05:18:55.588Z,85.07
2018-02-10T05:21:23.922Z,84.33
2018-02-10T05:23:51.486Z,91.50
2018-02-10T05:26:19.450Z,86.53
2018-02-10T05:28:47.004Z,90.67
2018-02-10T05:31:14.570Z,88.50
2018-02-10T05:33:42.161Z,95.73
2018-02-10T05:36:10.490Z,90.03
2018-02-10T05:38:38.053Z,86.00
2018-02-10T05:41:06.686Z,93.83
2018-02-10T05:43:35.579Z,82.43
2018-02-10T05:46:03.138Z,88.47
2018-02-10T05:48:30.739Z,89.33
2018-02-10T05:50:58.295Z,88.53
2018-02-10T05:53:26.085Z,81.47
2018-02-10T05:55:55.276Z,102.07
2018-02-10T05:58:22.821Z,97.73
2018-02-10T06:00:50.391Z,97.80
2018-02-10T06:03:18.241Z,95.50
2018-02-10T06:05:45.805Z,96.53
2018-02-10T06:08:13.366Z,109.20
2018-02-10T06:10:40.961Z,105.07
2018-02-10T06:13:09.348Z,109.63
2018-02-10T06:15:37.699Z,96.57
2018-02-10T06:18:05.538Z,99.20
2018-02-10T06:20:33.102Z,102.97
2018-02-10T06:23:00.681Z,104.90
2018-02-10T06:25:29.550Z,95.37
2018-02-10T06:27:57.120Z,96.77
2018-02-10T06:30:24.814Z,101.07
2018-02-10T06:32:53.429Z,109.70
2018-02-10T06:35:21.002Z,96.47
2018-02-10T06:37:48.573Z,96.10
2018-02-10T06:40:16.158Z,92.60
2018-02-10T06:42:43.782Z,96.03
2018-02-10T06:45:11.442Z,104.47
2018-02-10T06:47:39.252Z,97.17
2018-02-10T06:50:07.587Z,128.07
2018-02-10T06:52:35.174Z,107.97
2018-02-10T06:55:03.047Z,110.67
2018-02-10T06:57:31.389Z,106.33
2018-02-10T06:59:58.958Z,108.20
2018-02-10T07:02:26.906Z,109.97
2018-02-10T07:04:54.493Z,129.90
2018-02-10T07:07:22.068Z,144.47
2018-02-10T07:09:50.708Z,114.87
2018-02-10T07:12:18.278Z,122.00
2018-02-10T07:14:45.832Z,112.27
2018-02-10T07:17:13.707Z,115.70
2018-02-10T07:19:41.284Z,113.93
2018-02-10T07:22:09.610Z,115.77
2018-02-10T07:24:37.852Z,118.57
2018-02-10T07:27:06.185Z,127.30
2018-02-10T07:29:33.746Z,125.50
2018-02-10T07:32:01.712Z,115.90
2018-02-10T07:34:29.408Z,108.17
2018-02-10T07:36:57.764Z,125.17
2018-02-10T07:39:25.317Z,119.77
2018-02-10T07:41:52.886Z,120.93
2018-02-10T07:44:20.465Z,112.83
2018-02-10T07:46:48.796Z,117.93
2018-02-10T07:49:16.405Z,111.93
2018-02-10T07:51:44.753Z,130.80
2018-02-10T07:54:12.327Z,126.17
2018-02-10T07:56:40.677Z,112.00
2018-02-10T07:59:08.239Z,98.60
2018-02-10T08:01:36.216Z,104.20
2018-02-10T08:04:05.277Z,112.07
2018-02-10T08:06:32.842Z,123.67
2018-02-10T08:09:00.431Z,119.27
2018-02-10T08:11:27.996Z,126.07
2018-02-10T08:13:56.002Z,111.80
2018-02-10T08:16:23.570Z,122.90
2018-02-10T08:18:51.138Z,117.13
2018-02-10T08:21:18.741Z,110.60
2018-02-10T08:23:46.292Z,122.20
2018-02-10T08:26:13.891Z,139.70
2018-02-10T08:28:41.475Z,92.97
2018-02-10T08:31:09.097Z,118.53
2018-02-10T08:33:37.422Z,124.57
2018-02-10T08:36:04.996Z,96.27
2018-02-10T08:38:32.537Z,111.60
2018-02-10T08:41:00.386Z,107.67
2018-02-10T08:43:27.948Z,114.83
2018-02-10T08:45:55.499Z,110.37
2018-02-10T08:48:23.415Z,118.03
2018-02-10T08:50:50.990Z,120.73
2018-02-10T08:53:19.424Z,112.90
2018-02-10T08:55:47.009Z,127.90
2018-02-10T08:58:14.578Z,113.47
2018-02-10T09:00:42.717Z,123.37
2018-02-10T09:03:10.275Z,104.93
2018-02-10T09:05:37.847Z,112.23
2018-02-10T09:08:05.438Z,126.63
2018-02-10T09:10:33.774Z,127.20
2018-02-10T09:13:01.378Z,129.57
2018-02-10T09:15:29.712Z,167.23
2018-02-10T09:17:57.298Z,167.63
2018-02-10T09:20:25.329Z,154.40
2018-02-10T09:22:52.865Z,180.87
2018-02-10T09:25:20.479Z,150.00
2018-02-10T09:27:48.060Z,165.03
2018-02-10T09:30:16.414Z,170.67
2018-02-10T09:32:44.284Z,161.03
2018-02-10T09:35:13.419Z,154.73
2018-02-10T09:37:40.995Z,166.30
2018-02-10T09:40:10.211Z,167.70
2018-02-10T09:42:37.853Z,192.67
2018-02-10T09:45:05.759Z,168.23
2018-02-10T09:47:33.328Z,177.67
2018-02-10T09:50:00.899Z,169.47
2018-02-10T09:52:29.268Z,176.87
2018-02-10T09:54:57.610Z,211.87
2018-02-10T09:57:25.627Z,198.13
2018-02-10T09:59:53.187Z,213.30
2018-02-10T10:02:24.908Z,209.33
2018-02-10T10:04:54.463Z,209.57
2018-02-10T10:07:22.872Z,235.70
2018-02-10T10:09:50.487Z,204.57
2018-02-10T10:12:19.027Z,204.77
2018-02-10T10:14:46.631Z,216.80
2018-02-10T10:17:14.971Z,225.80
2018-02-10T10:19:42.691Z,218.13
2018-02-10T10:22:10.354Z,239.93
2018-02-10T10:24:37.934Z,257.13
2018-02-10T10:27:05.504Z,233.77
2018-02-10T10:29:33.379Z,212.47
2018-02-10T10:32:00.968Z,245.60
2018-02-10T10:34:29.313Z,281.67
2018-02-10T10:36:57.168Z,247.93
2018-02-10T10:39:24.738Z,261.47
2018-02-10T10:41:52.311Z,223.67
2018-02-10T10:44:20.970Z,227.10
2018-02-10T10:46:48.547Z,191.10
2018-02-10T10:49:17.695Z,172.90
2018-02-10T10:51:45.632Z,201.20
2018-02-10T10:54:13.981Z,173.80
2018-02-10T10:56:41.597Z,165.03
2018-02-10T10:59:09.506Z,165.17
2018-02-10T11:01:37.319Z,160.33
2018-02-10T11:04:04.879Z,175.80
2018-02-10T11:06:33.002Z,158.30
2018-02-10T11:09:00.589Z,148.90
2018-02-10T11:11:28.933Z,133.57
2018-02-10T11:13:56.884Z,125.97
2018-02-10T11:16:24.456Z,128.43
2018-02-10T11:18:52.074Z,115.47
2018-02-10T11:21:19.932Z,134.70
2018-02-10T11:23:47.506Z,138.33
2018-02-10T11:26:15.064Z,132.00
2018-02-10T11:28:42.898Z,142.23
2018-02-10T11:31:11.221Z,135.13
2018-02-10T11:33:38.779Z,139.13
2018-02-10T11:36:06.663Z,141.13
2018-02-10T11:38:34.212Z,135.03
2018-02-10T11:41:02.064Z,141.57
2018-02-10T11:43:29.919Z,129.17
2018-02-10T11:45:57.500Z,130.40
2018-02-10T11:48:25.074Z,129.03
2018-02-10T11:50:52.922Z,132.23
2018-02-10T11:53:20.499Z,121.73
2018-02-10T11:55:48.050Z,119.50
2018-02-10T11:58:15.939Z,116.80
2018-02-10T12:00:43.498Z,128.20
2018-02-10T12:03:11.065Z,125.00
2018-02-10T12:05:39.783Z,128.43
2018-02-10T12:08:07.343Z,116.60
2018-02-10T12:10:34.946Z,124.60
2018-02-10T12:13:02.558Z,134.33
2018-02-10T12:15:30.122Z,120.80
2018-02-10T12:17:57.694Z,117.33
2018-02-10T12:20:25.578Z,123.87
2018-02-10T12:22:53.426Z,118.27
2018-02-10T12:25:20.992Z,116.43
2018-02-10T12:27:48.585Z,101.00
2018-02-10T12:30:16.150Z,93.50
2018-02-10T12:32:43.706Z,106.37
2018-02-10T12:35:11.337Z,94.83
2018-02-10T12:37:38.928Z,106.30
2018-02-10T12:40:07.710Z,84.33
2018-02-10T12:42:35.275Z,88.50
2018-02-10T12:45:03.594Z,87.03
2018-02-10T12:47:51.169Z,89.57
2018-02-10T12:50:18.723Z,72.67
2018-02-10T12:52:46.307Z,78.03
2018-02-10T12:55:14.649Z,77.20
2018-02-10T12:57:42.253Z,73.67
2018-02-10T13:00:10.594Z,81.47
2018-02-10T13:02:38.208Z,79.00
2018-02-10T13:05:05.761Z,70.50
2018-02-10T13:07:33.359Z,67.17
2018-02-10T13:10:00.938Z,72.20
2018-02-10T13:12:28.526Z,72.80
2018-02-10T13:14:56.343Z,75.97
2018-02-10T13:17:23.913Z,68.97
2018-02-10T13:19:51.838Z,57.80
2018-02-10T13:22:19.393Z,58.63
2018-02-10T13:24:46.969Z,62.53
2018-02-10T13:27:15.423Z,58.10
2018-02-10T13:29:43.076Z,59.67
2018-02-10T13:32:12.633Z,73.40
2018-02-10T13:34:41.295Z,70.40
2018-02-10T13:37:09.149Z,64.60
2018-02-10T13:39:36.850Z,63.37
2018-02-10T13:42:05.512Z,64.97
2018-02-10T13:44:34.604Z,60.83
2018-02-10T13:47:02.216Z,61.33
2018-02-10T13:49:30.963Z,63.33
2018-02-10T13:51:58.552Z,60.93
2018-02-10T13:54:26.919Z,60.27
2018-02-10T13:56:56.411Z,56.37
2018-02-10T13:59:24.242Z,61.20
2018-02-10T14:01:51.813Z,65.50
2018-02-10T14:04:20.913Z,57.60
2018-02-10T14:06:48.503Z,63.97
2018-02-10T14:09:16.082Z,59.60
2018-02-10T14:11:44.836Z,61.00
2018-02-10T14:14:12.411Z,63.40
2018-02-10T14:16:40.737Z,63.13
2018-02-10T14:19:08.749Z,63.20
2018-02-10T14:21:37.096Z,67.87
2018-02-10T14:24:04.652Z,66.87
2018-02-10T14:26:32.528Z,65.73
2018-02-10T14:29:00.111Z,64.40
2018-02-10T14:31:29.199Z,65.37
2018-02-10T14:33:58.306Z,63.40
2018-02-10T14:36:25.866Z,71.00
2018-02-10T14:38:54.230Z,67.83
2018-02-10T14:41:21.789Z,73.90
2018-02-10T14:43:49.389Z,69.30
2018-02-10T14:46:16.953Z,76.80
2018-02-10T14:48:44.513Z,74.50
2018-02-10T14:51:12.116Z,77.50
2018-02-10T14:53:39.941Z,76.43
2018-02-10T14:56:07.489Z,79.73
2018-02-10T14:58:35.095Z,74.50
2018-02-10T15:01:02.655Z,76.60
2018-02-10T15:03:30.238Z,81.27
2018-02-10T15:05:57.970Z,75.43
2018-02-10T15:08:25.530Z,75.97
2018-02-10T15:10:53.089Z,80.93
2018-02-10T15:13:20.951Z,81.97
2018-02-10T15:15:48.527Z,79.93
2018-02-10T15:18:16.169Z,83.60
2018-02-10T15:20:44.015Z,77.70
2018-02-10T15:23:11.582Z,87.63
2018-02-10T15:25:39.143Z,86.93
2018-02-10T15:28:07.019Z,78.53
2018-02-10T15:30:46.491Z,78.63
2018-02-10T15:33:27.024Z,94.53
2018-02-10T15:35:54.586Z,86.07
2018-02-10T15:38:22.154Z,85.90
2018-02-10T15:40:49.798Z,91.83
2018-02-10T15:43:17.356Z,85.03
2018-02-10T15:45:45.229Z,93.90
2018-02-10T15:48:15.876Z,100.30
2018-02-10T15:50:44.225Z,95.70
2018-02-10T15:53:11.807Z,89.43
2018-02-10T15:55:39.403Z,103.60
2018-02-10T15:58:08.041Z,83.03
2018-02-10T16:00:35.607Z,75.37
2018-02-10T16:03:04.235Z,81.73
2018-02-10T16:05:32.145Z,80.93
2018-02-10T16:08:00.190Z,78.27
2018-02-10T16:10:27.744Z,75.83
2018-02-10T16:12:55.590Z,84.10
2018-02-10T16:15:23.938Z,77.60
2018-02-10T16:17:51.495Z,75.87
2018-02-10T16:20:19.432Z,78.77
2018-02-10T16:22:47.012Z,80.27
2018-02-10T16:25:14.564Z,90.77
2018-02-10T16:27:42.555Z,88.37
2018-02-10T16:30:10.922Z,105.63
2018-02-10T16:32:38.486Z,93.70
2018-02-10T16:35:06.857Z,102.70
2018-02-10T16:37:34.474Z,95.30
2018-02-10T16:40:02.201Z,86.77
2018-02-10T16:42:30.801Z,104.97
2018-02-10T16:44:58.373Z,106.00
2018-02-10T16:47:26.266Z,105.07
2018-02-10T16:49:54.855Z,93.13
2018-02-10T16:52:22.388Z,96.57
2018-02-10T16:54:50.006Z,116.93
2018-02-10T16:57:18.473Z,105.27
2018-02-10T16:59:46.336Z,113.43
2018-02-10T17:02:13.930Z,103.70
2018-02-10T17:04:42.261Z,124.60
2018-02-10T17:07:10.119Z,112.00
2018-02-10T17:09:37.691Z,119.37
2018-02-10T17:12:05.288Z,118.57
2018-02-10T17:14:33.896Z,133.57
2018-02-10T17:17:01.445Z,120.47
2018-02-10T17:19:29.059Z,109.53
2018-02-10T17:21:56.648Z,128.57
2018-02-10T17:24:24.987Z,116.10
2018-02-10T17:26:52.541Z,118.70
2018-02-10T17:29:20.510Z,125.83
2018-02-10T17:31:49.598Z,123.43
2018-02-10T17:34:17.216Z,138.20
2018-02-10T17:36:45.126Z,126.93
2018-02-10T17:39:12.702Z,142.90
2018-02-10T17:41:40.269Z,116.47
2018-02-10T17:44:08.201Z,130.67
2018-02-10T17:46:35.782Z,124.97
2018-02-10T17:49:04.010Z,131.60
2018-02-10T17:51:31.657Z,149.97
2018-02-10T17:53:59.237Z,168.00
2018-02-10T17:56:26.804Z,173.17
2018-02-10T17:58:54.695Z,166.70
2018-02-10T18:01:23.048Z,170.80
2018-02-10T18:03:50.641Z,140.17
2018-02-10T18:06:18.257Z,159.63
2018-02-10T18:08:45.833Z,168.10
2018-02-10T18:11:13.437Z,158.50
2018-02-10T18:13:42.089Z,146.60
2018-02-10T18:16:09.667Z,154.53
2018-02-10T18:18:37.992Z,149.47
2018-02-10T18:21:05.852Z,148.23
2018-02-10T18:23:33.421Z,149.37
2018-02-10T18:26:00.992Z,163.10
2018-02-10T18:28:28.623Z,159.30
2018-02-10T18:30:56.189Z,148.73
2018-02-10T18:33:23.752Z,166.60
2018-02-10T18:35:52.533Z,155.20
2018-02-10T18:38:20.096Z,147.00
2018-02-10T18:40:47.661Z,161.67
2018-02-10T18:43:15.278Z,142.97
2018-02-10T18:45:43.652Z,154.87
2018-02-10T18:48:12.005Z,133.60
2018-02-10T18:50:39.594Z,145.50
2018-02-10T18:53:08.348Z,152.00
2018-02-10T18:55:35.917Z,134.03
2018-02-10T18:58:03.487Z,131.33
2018-02-10T19:00:31.346Z,120.17
2018-02-10T19:02:58.933Z,125.93
2018-02-10T19:05:27.273Z,119.53
2018-02-10T19:07:55.475Z,126.40
2018-02-10T19:10:23.797Z,130.93
2018-02-10T19:12:51.332Z,142.77
2018-02-10T19:15:19.178Z,123.53
2018-02-10T19:17:47.497Z,130.30
2018-02-10T19:20:15.082Z,132.80
2018-02-10T19:22:42.675Z,124.17
2018-02-10T19:25:11.007Z,122.90
2018-02-10T19:27:38.921Z,122.07
2018-02-10T19:30:07.282Z,118.07
2018-02-10T19:32:35.602Z,96.50
2018-02-10T19:35:03.508Z,135.07
2018-02-10T19:37:31.080Z,114.10
2018-02-10T19:39:59.424Z,109.37
2018-02-10T19:42:27.303Z,104.50
2018-02-10T19:44:54.891Z,98.07
2018-02-10T19:47:23.227Z,110.10
2018-02-10T19:49:52.026Z,96.20
2018-02-10T19:52:19.597Z,106.47
2018-02-10T19:54:47.168Z,92.43
2018-02-10T19:57:15.538Z,80.03
2018-02-10T19:59:43.870Z,86.57
2018-02-10T20:02:11.459Z,87.40
2018-02-10T20:04:39.059Z,75.40
2018-02-10T20:07:06.632Z,72.63
2018-02-10T20:09:34.204Z,67.30
2018-02-10T20:12:01.805Z,66.60
2018-02-10T20:14:30.159Z,62.63
2018-02-10T20:16:57.758Z,62.83
2018-02-10T20:19:26.233Z,54.17
2018-02-10T20:21:54.580Z,56.83
2018-02-10T20:24:22.192Z,47.63
2018-02-10T20:26:49.757Z,50.90
2018-02-10T20:29:17.687Z,47.97
2018-02-10T20:31:45.259Z,54.73
2018-02-10T20:34:13.601Z,56.00
2018-02-10T20:36:41.513Z,37.17
2018-02-10T20:39:09.815Z,44.80
2018-02-10T20:41:37.390Z,40.50
2018-02-10T20:44:05.240Z,46.00
2018-02-10T20:46:32.817Z,30.03
2018-02-10T20:49:00.388Z,33.90
2018-02-10T20:51:27.978Z,39.67
2018-02-10T20:53:56.297Z,31.73
2018-02-10T20:56:23.862Z,33.27
2018-02-10T20:58:51.738Z,29.23
2018-02-10T21:01:20.345Z,24.23
2018-02-10T21:03:47.921Z,27.27
2018-02-10T21:06:16.574Z,29.53
2018-02-10T21:08:44.139Z,27.70
2018-02-10T21:11:11.723Z,34.50
2018-02-10T21:13:40.555Z,25.10
2018-02-10T21:16:08.170Z,29.70
2018-02-10T21:18:36.505Z,31.50
2018-02-10T21:21:04.106Z,33.60
2018-02-10T21:23:33.072Z,35.40
2018-02-10T21:26:00.665Z,30.00
2018-02-10T21:28:28.993Z,33.13
2018-02-10T21:30:56.594Z,23.40
2018-02-10T21:33:24.948Z,25.00
2018-02-10T21:35:52.522Z,32.97
2018-02-10T21:38:20.129Z,23.50
2018-02-10T21:40:47.688Z,28.47
2018-02-10T21:43:15.408Z,24.17
2018-02-10T21:45:43.780Z,29.30
2018-02-10T21:48:12.546Z,19.20
2018-02-10T21:50:40.105Z,26.63
2018-02-10T21:53:07.733Z,27.63
2018-02-10T21:55:35.586Z,24.30
2018-02-10T21:58:03.367Z,23.33
2018-02-10T22:00:30.939Z,24.70
2018-02-10T22:02:58.543Z,27.27
2018-02-10T22:05:26.872Z,26.07
2018-02-10T22:07:54.505Z,28.10
2018-02-10T22:10:22.087Z,25.30
2018-02-10T22:12:49.679Z,21.50
2018-02-10T22:15:18.150Z,24.70
2018-02-10T22:17:46.002Z,19.53
2018-02-10T22:20:13.622Z,19.10
2018-02-10T22:22:41.184Z,24.97
2018-02-10T22:25:09.086Z,18.10
2018-02-10T22:27:36.712Z,18.73
2018-02-10T22:30:04.321Z,21.53
2018-02-10T22:32:32.281Z,18.83
2018-02-10T22:34:59.843Z,14.77
2018-02-10T22:37:27.406Z,19.50
2018-02-10T22:39:55.032Z,18.13
2018-02-10T22:42:22.590Z,15.00
2018-02-10T22:44:50.155Z,14.40
2018-02-10T22:47:18.216Z,21.83
2018-02-10T22:49:45.781Z,19.23
2018-02-10T22:52:13.347Z,14.60
2018-02-10T22:54:40.934Z,21.77
2018-02-10T22:57:08.488Z,20.87
2018-02-10T22:59:36.045Z,14.47
2018-02-10T23:02:03.894Z,15.30
2018-02-10T23:04:31.463Z,18.60
2018-02-10T23:06:59.017Z,16.80
2018-02-10T23:09:26.614Z,14.53
2018-02-10T23:11:54.976Z,13.73
2018-02-10T23:14:22.525Z,17.07
2018-02-10T23:16:50.147Z,16.97
2018-02-10T23:19:17.723Z,18.67
2018-02-10T23:21:45.322Z,17.33
2018-02-10T23:24:13.645Z,18.90
2018-02-10T23:26:41.206Z,11.30
2018-02-10T23:29:08.793Z,12.63
2018-02-10T23:31:36.354Z,15.13
2018-02-10T23:36:44.631Z,12.17
2018-02-10T23:39:12.297Z,9.07
2018-02-10T23:41:39.840Z,9.90
2018-02-10T23:44:07.434Z,12.53
2018-02-10T23:46:35.023Z,11.40
2018-02-10T23:49:03.611Z,11.80
2018-02-10T23:51:31.187Z,20.37
2018-02-10T23:53:59.600Z,11.33
2018-02-10T23:56:29.329Z,13.33
2018-02-10T23:58:56.896Z,11.60
